sensor_id;sensor_type;location;lat;lon;timestamp;pressure;altitude;pressure_sealevel;temperature;humidity
11678;BME280;5895;41.950;24.372;2022-11-20T00:01:17;86493.75;;;12.53;80.89
11678;BME280;5895;41.950;24.372;2022-11-20T00:03:45;86503.38;;;12.53;81.75
11678;BME280;5895;41.950;24.372;2022-11-20T00:06:14;86510.63;;;12.51;81.50
11678;BME280;5895;41.950;24.372;2022-11-20T00:08:42;86508.59;;;12.53;80.84
11678;BME280;5895;41.950;24.372;2022-11-20T00:11:11;86507.81;;;12.52;81.17
11678;BME280;5895;41.950;24.372;2022-11-20T00:13:41;86494.81;;;12.52;80.65
11678;BME280;5895;41.950;24.372;2022-11-20T00:16:09;86518.22;;;12.52;81.43
11678;BME280;5895;41.950;24.372;2022-11-20T00:18:37;86526.25;;;12.51;80.96
11678;BME280;5895;41.950;24.372;2022-11-20T00:21:06;86517.91;;;12.49;81.76
11678;BME280;5895;41.950;24.372;2022-11-20T00:23:34;86533.28;;;12.50;81.12
11678;BME280;5895;41.950;24.372;2022-11-20T00:26:03;86527.53;;;12.48;81.79
11678;BME280;5895;41.950;24.372;2022-11-20T00:28:30;86527.84;;;12.52;80.99
11678;BME280;5895;41.950;24.372;2022-11-20T00:31:04;86523.44;;;12.52;81.54
11678;BME280;5895;41.950;24.372;2022-11-20T00:33:32;86527.53;;;12.48;80.64
11678;BME280;5895;41.950;24.372;2022-11-20T00:36:00;86501.25;;;12.50;80.71
11678;BME280;5895;41.950;24.372;2022-11-20T00:38:29;86508.28;;;12.49;80.92
11678;BME280;5895;41.950;24.372;2022-11-20T00:40:57;86510.09;;;12.49;81.28
11678;BME280;5895;41.950;24.372;2022-11-20T00:43:25;86505.16;;;12.47;81.06
11678;BME280;5895;41.950;24.372;2022-11-20T00:45:57;86503.34;;;12.48;82.15
11678;BME280;5895;41.950;24.372;2022-11-20T00:48:26;86495.22;;;12.44;82.02
11678;BME280;5895;41.950;24.372;2022-11-20T00:50:54;86519.69;;;12.43;81.91
11678;BME280;5895;41.950;24.372;2022-11-20T00:53:22;86512.13;;;12.41;82.64
11678;BME280;5895;41.950;24.372;2022-11-20T00:55:53;86513.94;;;12.41;82.92
11678;BME280;5895;41.950;24.372;2022-11-20T00:58:22;86507.16;;;12.40;82.39
11678;BME280;5895;41.950;24.372;2022-11-20T01:00:49;86499.34;;;12.40;82.00
11678;BME280;5895;41.950;24.372;2022-11-20T01:03:17;86511.03;;;12.37;81.55
11678;BME280;5895;41.950;24.372;2022-11-20T01:05:46;86497.78;;;12.39;82.70
11678;BME280;5895;41.950;24.372;2022-11-20T01:08:14;86499.34;;;12.40;81.01
11678;BME280;5895;41.950;24.372;2022-11-20T01:10:41;86495.72;;;12.41;80.61
11678;BME280;5895;41.950;24.372;2022-11-20T01:13:09;86491.78;;;12.38;82.04
11678;BME280;5895;41.950;24.372;2022-11-20T01:15:53;86492.56;;;12.39;80.92
11678;BME280;5895;41.950;24.372;2022-11-20T01:18:21;86499.34;;;12.40;81.55
11678;BME280;5895;41.950;24.372;2022-11-20T01:20:50;86475.91;;;12.40;81.46
11678;BME280;5895;41.950;24.372;2022-11-20T01:23:17;86476.44;;;12.37;81.97
11678;BME280;5895;41.950;24.372;2022-11-20T01:25:45;86482.66;;;12.36;81.86
11678;BME280;5895;41.950;24.372;2022-11-20T01:28:12;86473.28;;;12.35;81.17
11678;BME280;5895;41.950;24.372;2022-11-20T01:30:40;86505.53;;;12.34;81.91
11678;BME280;5895;41.950;24.372;2022-11-20T01:33:07;86468.81;;;12.30;82.15
11678;BME280;5895;41.950;24.372;2022-11-20T01:35:35;86478.44;;;12.30;81.97
11678;BME280;5895;41.950;24.372;2022-11-20T01:38:04;86468.50;;;12.27;82.01
11678;BME280;5895;41.950;24.372;2022-11-20T01:40:31;86458.09;;;12.27;81.49
11678;BME280;5895;41.950;24.372;2022-11-20T01:43:11;86463.31;;;12.27;83.64
11678;BME280;5895;41.950;24.372;2022-11-20T01:46:13;86441.72;;;12.26;82.59
11678;BME280;5895;41.950;24.372;2022-11-20T01:48:45;86437.31;;;12.27;82.38
11678;BME280;5895;41.950;24.372;2022-11-20T01:51:20;86439.38;;;12.25;81.71
11678;BME280;5895;41.950;24.372;2022-11-20T01:53:50;86428.66;;;12.21;81.55
11678;BME280;5895;41.950;24.372;2022-11-20T01:56:23;86431.00;;;12.23;81.24
11678;BME280;5895;41.950;24.372;2022-11-20T01:58:53;86446.34;;;12.19;82.24
11678;BME280;5895;41.950;24.372;2022-11-20T02:01:21;86428.34;;;12.17;81.69
11678;BME280;5895;41.950;24.372;2022-11-20T02:03:49;86421.59;;;12.16;81.46
11678;BME280;5895;41.950;24.372;2022-11-20T02:06:22;86419.25;;;12.15;81.29
11678;BME280;5895;41.950;24.372;2022-11-20T02:08:52;86423.59;;;12.09;81.82
11678;BME280;5895;41.950;24.372;2022-11-20T02:11:20;86397.34;;;12.11;82.41
11678;BME280;5895;41.950;24.372;2022-11-20T02:13:49;86413.22;;;12.09;81.44
11678;BME280;5895;41.950;24.372;2022-11-20T02:16:19;86398.63;;;12.08;82.82
11678;BME280;5895;41.950;24.372;2022-11-20T02:18:49;86396.50;;;12.05;83.02
11678;BME280;5895;41.950;24.372;2022-11-20T02:21:34;86418.84;;;12.01;84.42
11678;BME280;5895;41.950;24.372;2022-11-20T02:24:15;86422.47;;;12.00;83.96
11678;BME280;5895;41.950;24.372;2022-11-20T02:26:48;86416.97;;;11.97;82.95
11678;BME280;5895;41.950;24.372;2022-11-20T02:29:22;86425.81;;;11.96;83.07
11678;BME280;5895;41.950;24.372;2022-11-20T02:31:51;86406.28;;;11.93;83.39
11678;BME280;5895;41.950;24.372;2022-11-20T02:34:21;86409.91;;;11.92;83.59
11678;BME280;5895;41.950;24.372;2022-11-20T02:36:49;86422.91;;;11.92;83.18
11678;BME280;5895;41.950;24.372;2022-11-20T02:39:20;86404.72;;;11.92;83.63
11678;BME280;5895;41.950;24.372;2022-11-20T02:41:49;86418.75;;;11.91;83.30
11678;BME280;5895;41.950;24.372;2022-11-20T02:44:19;86442.09;;;11.86;83.61
11678;BME280;5895;41.950;24.372;2022-11-20T02:46:47;86447.28;;;11.86;83.77
11678;BME280;5895;41.950;24.372;2022-11-20T02:49:14;86406.47;;;11.86;83.27
11678;BME280;5895;41.950;24.372;2022-11-20T02:51:42;86403.63;;;11.88;82.67
11678;BME280;5895;41.950;24.372;2022-11-20T02:54:10;86443.13;;;11.85;82.94
11678;BME280;5895;41.950;24.372;2022-11-20T02:56:39;86417.66;;;11.87;82.75
11678;BME280;5895;41.950;24.372;2022-11-20T02:59:07;86414.53;;;11.85;82.29
11678;BME280;5895;41.950;24.372;2022-11-20T03:01:35;86433.25;;;11.87;82.45
11678;BME280;5895;41.950;24.372;2022-11-20T03:04:03;86460.53;;;11.84;83.20
11678;BME280;5895;41.950;24.372;2022-11-20T03:06:30;86454.81;;;11.87;83.11
11678;BME280;5895;41.950;24.372;2022-11-20T03:08:58;86411.66;;;11.86;82.66
11678;BME280;5895;41.950;24.372;2022-11-20T03:11:26;86446.50;;;11.85;82.77
11678;BME280;5895;41.950;24.372;2022-11-20T03:13:55;86429.34;;;11.84;83.49
11678;BME280;5895;41.950;24.372;2022-11-20T03:16:25;86427.75;;;11.83;83.88
11678;BME280;5895;41.950;24.372;2022-11-20T03:18:52;86448.22;;;11.80;84.01
11678;BME280;5895;41.950;24.372;2022-11-20T03:21:20;86437.81;;;11.80;83.65
11678;BME280;5895;41.950;24.372;2022-11-20T03:23:48;86446.66;;;11.79;83.17
11678;BME280;5895;41.950;24.372;2022-11-20T03:26:17;86446.66;;;11.79;84.40
11678;BME280;5895;41.950;24.372;2022-11-20T03:28:47;86450.25;;;11.78;84.53
11678;BME280;5895;41.950;24.372;2022-11-20T03:31:19;86471.06;;;11.78;83.79
11678;BME280;5895;41.950;24.372;2022-11-20T03:33:47;86463.81;;;11.80;82.92
11678;BME280;5895;41.950;24.372;2022-11-20T03:36:16;86466.41;;;11.80;82.63
11678;BME280;5895;41.950;24.372;2022-11-20T03:38:44;86465.16;;;11.82;83.57
11678;BME280;5895;41.950;24.372;2022-11-20T03:41:13;86463.34;;;11.83;82.90
11678;BME280;5895;41.950;24.372;2022-11-20T03:43:41;86469.31;;;11.83;83.18
11678;BME280;5895;41.950;24.372;2022-11-20T03:46:09;86475.78;;;11.81;84.44
11678;BME280;5895;41.950;24.372;2022-11-20T03:48:38;86466.97;;;11.82;83.66
11678;BME280;5895;41.950;24.372;2022-11-20T03:51:09;86469.78;;;11.80;84.67
11678;BME280;5895;41.950;24.372;2022-11-20T03:53:37;86479.41;;;11.80;83.41
11678;BME280;5895;41.950;24.372;2022-11-20T03:56:06;86483.03;;;11.79;83.38
11678;BME280;5895;41.950;24.372;2022-11-20T03:58:34;86462.25;;;11.79;82.53
11678;BME280;5895;41.950;24.372;2022-11-20T04:01:06;86479.88;;;11.77;83.57
11678;BME280;5895;41.950;24.372;2022-11-20T04:03:34;86497.03;;;11.78;83.36
11678;BME280;5895;41.950;24.372;2022-11-20T04:06:05;86476.75;;;11.75;83.90
11678;BME280;5895;41.950;24.372;2022-11-20T04:08:33;86472.59;;;11.74;83.45
11678;BME280;5895;41.950;24.372;2022-11-20T04:11:11;86483.97;;;11.73;84.81
11678;BME280;5895;41.950;24.372;2022-11-20T04:13:39;86477.72;;;11.69;83.88
11678;BME280;5895;41.950;24.372;2022-11-20T04:16:08;86481.34;;;11.68;84.39
11678;BME280;5895;41.950;24.372;2022-11-20T04:18:36;86479.75;;;11.66;83.50
11678;BME280;5895;41.950;24.372;2022-11-20T04:21:05;86500.53;;;11.66;84.16
11678;BME280;5895;41.950;24.372;2022-11-20T04:23:33;86493.78;;;11.65;83.61
11678;BME280;5895;41.950;24.372;2022-11-20T04:26:02;86489.34;;;11.66;83.74
11678;BME280;5895;41.950;24.372;2022-11-20T04:28:30;86490.13;;;11.66;83.38
11678;BME280;5895;41.950;24.372;2022-11-20T04:31:04;86496.94;;;11.68;83.81
11678;BME280;5895;41.950;24.372;2022-11-20T04:33:33;86490.13;;;11.66;82.92
11678;BME280;5895;41.950;24.372;2022-11-20T04:36:02;86481.34;;;11.68;82.51
11678;BME280;5895;41.950;24.372;2022-11-20T04:38:31;86478.75;;;11.68;83.20
11678;BME280;5895;41.950;24.372;2022-11-20T04:41:00;86480.53;;;11.67;82.71
11678;BME280;5895;41.950;24.372;2022-11-20T04:43:28;86469.34;;;11.66;83.03
11678;BME280;5895;41.950;24.372;2022-11-20T04:45:57;86482.34;;;11.66;83.25
11678;BME280;5895;41.950;24.372;2022-11-20T04:48:25;86485.44;;;11.63;83.17
11678;BME280;5895;41.950;24.372;2022-11-20T04:50:53;86483.88;;;11.62;82.86
11678;BME280;5895;41.950;24.372;2022-11-20T04:53:21;86480.72;;;11.60;82.48
11678;BME280;5895;41.950;24.372;2022-11-20T04:55:51;86475.06;;;11.63;82.82
11678;BME280;5895;41.950;24.372;2022-11-20T04:58:18;86478.69;;;11.62;82.50
11678;BME280;5895;41.950;24.372;2022-11-20T05:00:45;86494.50;;;11.61;83.38
11678;BME280;5895;41.950;24.372;2022-11-20T05:03:13;86495.28;;;11.61;83.18
11678;BME280;5895;41.950;24.372;2022-11-20T05:05:40;86485.44;;;11.63;82.07
11678;BME280;5895;41.950;24.372;2022-11-20T05:08:08;86487.47;;;11.61;82.62
11678;BME280;5895;41.950;24.372;2022-11-20T05:10:35;86480.25;;;11.63;82.64
11678;BME280;5895;41.950;24.372;2022-11-20T05:13:04;86474.25;;;11.63;82.64
11678;BME280;5895;41.950;24.372;2022-11-20T05:15:32;86477.09;;;11.61;83.06
11678;BME280;5895;41.950;24.372;2022-11-20T05:18:00;86485.91;;;11.60;82.46
11678;BME280;5895;41.950;24.372;2022-11-20T05:20:27;86490.31;;;11.60;82.69
11678;BME280;5895;41.950;24.372;2022-11-20T05:22:56;86478.59;;;11.57;83.38
11678;BME280;5895;41.950;24.372;2022-11-20T05:25:24;86473.41;;;11.57;82.91
11678;BME280;5895;41.950;24.372;2022-11-20T05:27:51;86477.81;;;11.57;82.80
11678;BME280;5895;41.950;24.372;2022-11-20T05:30:20;86476.72;;;11.53;83.51
11678;BME280;5895;41.950;24.372;2022-11-20T05:32:47;86470.75;;;11.52;82.92
11678;BME280;5895;41.950;24.372;2022-11-20T05:35:15;86474.38;;;11.51;83.01
11678;BME280;5895;41.950;24.372;2022-11-20T05:37:43;86473.81;;;11.49;83.98
11678;BME280;5895;41.950;24.372;2022-11-20T05:40:11;86478.72;;;11.46;83.41
11678;BME280;5895;41.950;24.372;2022-11-20T05:42:39;86475.88;;;11.47;83.86
11678;BME280;5895;41.950;24.372;2022-11-20T05:45:09;86477.94;;;11.45;84.26
11678;BME280;5895;41.950;24.372;2022-11-20T05:47:38;86474.53;;;11.45;83.13
11678;BME280;5895;41.950;24.372;2022-11-20T05:50:06;86478.72;;;11.46;84.13
11678;BME280;5895;41.950;24.372;2022-11-20T05:52:34;86476.91;;;11.46;84.13
11678;BME280;5895;41.950;24.372;2022-11-20T05:55:01;86477.94;;;11.45;84.37
11678;BME280;5895;41.950;24.372;2022-11-20T05:57:29;86483.91;;;11.46;83.32
11678;BME280;5895;41.950;24.372;2022-11-20T05:59:57;86482.31;;;11.45;84.42
11678;BME280;5895;41.950;24.372;2022-11-20T06:02:25;86482.31;;;11.45;84.13
11678;BME280;5895;41.950;24.372;2022-11-20T06:04:54;86480.53;;;11.45;84.24
11678;BME280;5895;41.950;24.372;2022-11-20T06:07:22;86488.31;;;11.45;84.60
11678;BME280;5895;41.950;24.372;2022-11-20T06:09:49;86498.72;;;11.45;84.09
11678;BME280;5895;41.950;24.372;2022-11-20T06:12:16;86496.13;;;11.45;84.01
11678;BME280;5895;41.950;24.372;2022-11-20T06:14:47;86505.47;;;11.46;84.12
11678;BME280;5895;41.950;24.372;2022-11-20T06:17:14;86502.63;;;11.48;84.29
11678;BME280;5895;41.950;24.372;2022-11-20T06:19:42;86493.03;;;11.48;84.11
11678;BME280;5895;41.950;24.372;2022-11-20T06:22:11;86489.97;;;11.51;84.39
11678;BME280;5895;41.950;24.372;2022-11-20T06:24:38;86494.38;;;11.51;83.65
11678;BME280;5895;41.950;24.372;2022-11-20T06:27:06;86497.75;;;11.51;83.91
11678;BME280;5895;41.950;24.372;2022-11-20T06:29:33;86493.09;;;11.53;83.91
11678;BME280;5895;41.950;24.372;2022-11-20T06:32:00;86487.44;;;11.56;83.51
11678;BME280;5895;41.950;24.372;2022-11-20T06:34:28;86497.59;;;11.58;84.06
11678;BME280;5895;41.950;24.372;2022-11-20T06:36:55;86495.75;;;11.58;83.46
11678;BME280;5895;41.950;24.372;2022-11-20T06:39:24;86491.09;;;11.60;83.81
11678;BME280;5895;41.950;24.372;2022-11-20T06:41:52;86491.88;;;11.61;83.57
11678;BME280;5895;41.950;24.372;2022-11-20T06:44:19;86483.88;;;11.62;84.20
11678;BME280;5895;41.950;24.372;2022-11-20T06:46:47;86487.47;;;11.61;83.69
11678;BME280;5895;41.950;24.372;2022-11-20T06:49:14;86491.09;;;11.60;83.54
11678;BME280;5895;41.950;24.372;2022-11-20T06:51:41;86478.91;;;11.61;83.87
11678;BME280;5895;41.950;24.372;2022-11-20T06:54:09;86486.47;;;11.62;83.96
11678;BME280;5895;41.950;24.372;2022-11-20T06:56:38;86476.88;;;11.63;83.88
11678;BME280;5895;41.950;24.372;2022-11-20T06:59:05;86468.81;;;11.64;83.99
11678;BME280;5895;41.950;24.372;2022-11-20T07:01:33;86473.22;;;11.64;83.42
11678;BME280;5895;41.950;24.372;2022-11-20T07:04:01;86477.72;;;11.69;84.51
11678;BME280;5895;41.950;24.372;2022-11-20T07:06:28;86474.41;;;11.73;83.87
11678;BME280;5895;41.950;24.372;2022-11-20T07:08:56;86465.63;;;11.79;83.43
11678;BME280;5895;41.950;24.372;2022-11-20T07:11:23;86466.97;;;11.82;83.10
11678;BME280;5895;41.950;24.372;2022-11-20T07:13:52;86458.16;;;11.83;82.83
11678;BME280;5895;41.950;24.372;2022-11-20T07:16:20;86455.06;;;11.86;83.10
11678;BME280;5895;41.950;24.372;2022-11-20T07:18:47;86466.78;;;11.88;83.35
11678;BME280;5895;41.950;24.372;2022-11-20T07:21:15;86480.03;;;11.87;82.91
11678;BME280;5895;41.950;24.372;2022-11-20T07:23:42;86473.56;;;11.89;82.60
11678;BME280;5895;41.950;24.372;2022-11-20T07:26:10;86481.13;;;11.91;82.30
11678;BME280;5895;41.950;24.372;2022-11-20T07:28:38;86469.69;;;11.92;81.92
11678;BME280;5895;41.950;24.372;2022-11-20T07:31:07;86468.66;;;11.93;82.79
11678;BME280;5895;41.950;24.372;2022-11-20T07:33:34;86461.41;;;11.95;82.15
11678;BME280;5895;41.950;24.372;2022-11-20T07:36:02;86465.59;;;11.96;82.51
11678;BME280;5895;41.950;24.372;2022-11-20T07:38:30;86490.56;;;11.97;82.88
11678;BME280;5895;41.950;24.372;2022-11-20T07:40:58;86475.50;;;11.99;82.01
11678;BME280;5895;41.950;24.372;2022-11-20T07:43:27;86475.56;;;12.04;82.11
11678;BME280;5895;41.950;24.372;2022-11-20T07:45:55;86463.66;;;12.08;82.05
11678;BME280;5895;41.950;24.372;2022-11-20T07:48:25;86488.16;;;12.12;81.59
11678;BME280;5895;41.950;24.372;2022-11-20T07:50:53;86472.03;;;12.15;81.59
11678;BME280;5895;41.950;24.372;2022-11-20T07:53:21;86449.72;;;12.20;81.13
11678;BME280;5895;41.950;24.372;2022-11-20T07:55:49;86455.25;;;12.28;82.23
11678;BME280;5895;41.950;24.372;2022-11-20T07:58:18;86455.56;;;12.32;81.24
11678;BME280;5895;41.950;24.372;2022-11-20T08:00:45;86458.22;;;12.37;80.07
11678;BME280;5895;41.950;24.372;2022-11-20T08:03:13;86454.56;;;12.38;80.44
11678;BME280;5895;41.950;24.372;2022-11-20T08:05:42;86471.75;;;12.39;81.33
11678;BME280;5895;41.950;24.372;2022-11-20T08:08:10;86470.72;;;12.40;81.46
11678;BME280;5895;41.950;24.372;2022-11-20T08:10:37;86471.28;;;12.42;81.21
11678;BME280;5895;41.950;24.372;2022-11-20T08:13:05;86481.44;;;12.43;80.58
11678;BME280;5895;41.950;24.372;2022-11-20T08:15:50;86474.41;;;12.44;80.88
11678;BME280;5895;41.950;24.372;2022-11-20T08:18:18;86493.97;;;12.47;80.41
11678;BME280;5895;41.950;24.372;2022-11-20T08:20:46;86471.84;;;12.49;81.13
11678;BME280;5895;41.950;24.372;2022-11-20T08:23:14;86492.69;;;12.49;80.96
11678;BME280;5895;41.950;24.372;2022-11-20T08:25:41;86472.66;;;12.50;79.98
11678;BME280;5895;41.950;24.372;2022-11-20T08:28:09;86460.19;;;12.52;79.95
11678;BME280;5895;41.950;24.372;2022-11-20T08:30:37;86454.19;;;12.51;80.60
11678;BME280;5895;41.950;24.372;2022-11-20T08:33:06;86457.81;;;12.50;79.64
11678;BME280;5895;41.950;24.372;2022-11-20T08:35:34;86460.97;;;12.52;80.06
11678;BME280;5895;41.950;24.372;2022-11-20T08:38:03;86474.50;;;12.54;79.34
11678;BME280;5895;41.950;24.372;2022-11-20T08:40:32;86466.19;;;12.52;79.64
11678;BME280;5895;41.950;24.372;2022-11-20T08:42:59;86439.94;;;12.59;79.70
11678;BME280;5895;41.950;24.372;2022-11-20T08:45:27;86450.63;;;12.62;79.58
11678;BME280;5895;41.950;24.372;2022-11-20T08:47:59;86469.09;;;12.61;80.19
11678;BME280;5895;41.950;24.372;2022-11-20T08:50:28;86450.16;;;12.65;79.26
11678;BME280;5895;41.950;24.372;2022-11-20T08:53:03;86448.38;;;12.71;79.06
11678;BME280;5895;41.950;24.372;2022-11-20T08:55:31;86440.09;;;12.74;79.22
11678;BME280;5895;41.950;24.372;2022-11-20T08:57:58;86442.97;;;12.78;78.55
11678;BME280;5895;41.950;24.372;2022-11-20T09:00:30;86482.00;;;12.78;79.22
11678;BME280;5895;41.950;24.372;2022-11-20T09:02:57;86487.78;;;12.80;78.33
11678;BME280;5895;41.950;24.372;2022-11-20T09:05:26;86453.16;;;12.84;78.19
11678;BME280;5895;41.950;24.372;2022-11-20T09:07:56;86466.53;;;12.93;78.02
11678;BME280;5895;41.950;24.372;2022-11-20T09:10:25;86434.81;;;13.01;77.82
11678;BME280;5895;41.950;24.372;2022-11-20T09:12:52;86464.00;;;13.03;78.41
11678;BME280;5895;41.950;24.372;2022-11-20T09:15:20;86441.91;;;13.11;77.00
11678;BME280;5895;41.950;24.372;2022-11-20T09:17:51;86435.50;;;13.23;77.17
11678;BME280;5895;41.950;24.372;2022-11-20T09:20:18;86447.63;;;13.45;75.52
11678;BME280;5895;41.950;24.372;2022-11-20T09:22:46;86447.91;;;13.48;75.79
11678;BME280;5895;41.950;24.372;2022-11-20T09:25:14;86458.59;;;13.52;75.91
11678;BME280;5895;41.950;24.372;2022-11-20T09:27:43;86442.72;;;13.48;75.38
11678;BME280;5895;41.950;24.372;2022-11-20T09:30:12;86435.34;;;13.40;75.13
11678;BME280;5895;41.950;24.372;2022-11-20T09:32:40;86430.41;;;13.39;76.00
11678;BME280;5895;41.950;24.372;2022-11-20T09:35:08;86441.09;;;13.37;75.15
11678;BME280;5895;41.950;24.372;2022-11-20T09:37:36;86475.22;;;13.36;74.79
11678;BME280;5895;41.950;24.372;2022-11-20T09:40:05;86438.72;;;13.36;75.32
11678;BME280;5895;41.950;24.372;2022-11-20T09:42:37;86424.75;;;13.57;74.59
11678;BME280;5895;41.950;24.372;2022-11-20T09:45:20;86425.81;;;13.61;73.81
11678;BME280;5895;41.950;24.372;2022-11-20T09:48:03;86431.31;;;13.60;73.82
11678;BME280;5895;41.950;24.372;2022-11-20T09:50:36;86432.59;;;13.62;74.40
11678;BME280;5895;41.950;24.372;2022-11-20T09:53:13;86437.81;;;13.62;73.95
11678;BME280;5895;41.950;24.372;2022-11-20T09:55:44;86459.19;;;13.59;74.32
11678;BME280;5895;41.950;24.372;2022-11-20T09:58:21;86423.75;;;13.58;74.46
11678;BME280;5895;41.950;24.372;2022-11-20T10:00:53;86436.03;;;13.68;75.35
11678;BME280;5895;41.950;24.372;2022-11-20T10:03:37;86407.66;;;13.76;73.75
11678;BME280;5895;41.950;24.372;2022-11-20T10:06:12;86428.50;;;13.76;74.21
11678;BME280;5895;41.950;24.372;2022-11-20T10:08:43;86435.28;;;13.72;73.97
11678;BME280;5895;41.950;24.372;2022-11-20T10:11:17;86429.53;;;13.70;74.34
11678;BME280;5895;41.950;24.372;2022-11-20T10:13:56;86428.50;;;13.71;74.02
11678;BME280;5895;41.950;24.372;2022-11-20T10:16:35;86422.75;;;13.74;74.02
11678;BME280;5895;41.950;24.372;2022-11-20T10:19:14;86414.75;;;13.86;73.56
11678;BME280;5895;41.950;24.372;2022-11-20T10:21:58;86401.50;;;14.03;73.34
11678;BME280;5895;41.950;24.372;2022-11-20T10:24:44;86400.47;;;14.19;71.25
11678;BME280;5895;41.950;24.372;2022-11-20T10:27:37;86413.03;;;14.27;71.80
11678;BME280;5895;41.950;24.372;2022-11-20T10:30:09;86392.16;;;14.27;72.35
11678;BME280;5895;41.950;24.372;2022-11-20T10:32:42;86404.16;;;14.28;71.60
11678;BME280;5895;41.950;24.372;2022-11-20T10:46:45;86412.63;;;14.61;69.11
11678;BME280;5895;41.950;24.372;2022-11-20T10:49:14;86392.25;;;14.48;70.67
11678;BME280;5895;41.950;24.372;2022-11-20T10:51:53;86404.19;;;14.34;68.97
11678;BME280;5895;41.950;24.372;2022-11-20T10:54:32;86408.31;;;14.19;68.93
11678;BME280;5895;41.950;24.372;2022-11-20T10:57:10;86378.56;;;14.15;70.20
11678;BME280;5895;41.950;24.372;2022-11-20T11:00:00;86381.47;;;14.34;70.07
11678;BME280;5895;41.950;24.372;2022-11-20T11:02:36;86378.38;;;14.52;69.91
11678;BME280;5895;41.950;24.372;2022-11-20T11:05:16;86379.72;;;14.60;69.40
11678;BME280;5895;41.950;24.372;2022-11-20T11:07:45;86360.66;;;14.54;70.78
11678;BME280;5895;41.950;24.372;2022-11-20T11:10:16;86353.56;;;14.40;70.38
11678;BME280;5895;41.950;24.372;2022-11-20T11:12:46;86356.16;;;14.29;71.11
11678;BME280;5895;41.950;24.372;2022-11-20T11:15:25;86367.16;;;14.52;70.86
11678;BME280;5895;41.950;24.372;2022-11-20T11:17:54;86359.34;;;14.67;70.29
11678;BME280;5895;41.950;24.372;2022-11-20T11:20:22;86362.47;;;14.69;70.84
11678;BME280;5895;41.950;24.372;2022-11-20T11:22:51;86345.78;;;14.65;69.89
11678;BME280;5895;41.950;24.372;2022-11-20T11:25:24;86360.13;;;14.52;68.92
11678;BME280;5895;41.950;24.372;2022-11-20T11:27:53;86352.03;;;14.54;69.87
11678;BME280;5895;41.950;24.372;2022-11-20T11:30:23;86353.59;;;14.60;70.57
11678;BME280;5895;41.950;24.372;2022-11-20T11:32:50;86356.22;;;14.65;70.43
11678;BME280;5895;41.950;24.372;2022-11-20T11:35:22;86361.44;;;14.65;69.43
11678;BME280;5895;41.950;24.372;2022-11-20T11:37:51;86350.47;;;14.78;70.19
11678;BME280;5895;41.950;24.372;2022-11-20T11:40:21;86327.97;;;15.08;69.26
11678;BME280;5895;41.950;24.372;2022-11-20T11:42:54;86340.50;;;15.21;68.41
11678;BME280;5895;41.950;24.372;2022-11-20T11:45:21;86350.19;;;15.16;68.82
11678;BME280;5895;41.950;24.372;2022-11-20T11:47:48;86358.03;;;15.11;68.90
11678;BME280;5895;41.950;24.372;2022-11-20T11:50:21;86340.78;;;15.04;68.91
11678;BME280;5895;41.950;24.372;2022-11-20T11:52:58;86331.13;;;14.95;67.90
11678;BME280;5895;41.950;24.372;2022-11-20T11:55:33;86329.56;;;14.84;69.00
11678;BME280;5895;41.950;24.372;2022-11-20T11:58:16;86351.78;;;14.76;67.86
11678;BME280;5895;41.950;24.372;2022-11-20T12:00:51;86341.59;;;14.69;68.72
11678;BME280;5895;41.950;24.372;2022-11-20T12:03:24;86340.56;;;14.55;69.18
11678;BME280;5895;41.950;24.372;2022-11-20T12:05:58;86342.06;;;14.46;69.92
11678;BME280;5895;41.950;24.372;2022-11-20T12:08:30;86332.16;;;14.33;69.80
11678;BME280;5895;41.950;24.372;2022-11-20T12:11:03;86337.34;;;14.22;70.60
11678;BME280;5895;41.950;24.372;2022-11-20T12:13:50;86343.59;;;14.06;70.31
11678;BME280;5895;41.950;24.372;2022-11-20T12:16:21;86340.44;;;13.94;71.55
11678;BME280;5895;41.950;24.372;2022-11-20T12:18:49;86344.00;;;13.72;72.50
11678;BME280;5895;41.950;24.372;2022-11-20T12:21:32;86382.50;;;13.50;72.69
11678;BME280;5895;41.950;24.372;2022-11-20T12:24:30;86361.84;;;13.33;74.05
11678;BME280;5895;41.950;24.372;2022-11-20T12:27:10;86365.09;;;13.18;75.05
11678;BME280;5895;41.950;24.372;2022-11-20T12:29:53;86359.31;;;13.06;74.68
11678;BME280;5895;41.950;24.372;2022-11-20T12:32:52;86351.72;;;13.00;75.96
11678;BME280;5895;41.950;24.372;2022-11-20T12:35:42;86361.06;;;12.95;76.43
11678;BME280;5895;41.950;24.372;2022-11-20T12:38:36;86351.16;;;12.92;77.38
11678;BME280;5895;41.950;24.372;2022-11-20T12:41:10;86355.00;;;12.85;76.63
11678;BME280;5895;41.950;24.372;2022-11-20T12:44:06;86349.25;;;12.78;77.53
11678;BME280;5895;41.950;24.372;2022-11-20T12:47:05;86356.97;;;12.67;77.05
11678;BME280;5895;41.950;24.372;2022-11-20T12:49:42;86346.53;;;12.62;78.23
11678;BME280;5895;41.950;24.372;2022-11-20T12:52:27;86348.31;;;12.52;79.48
11678;BME280;5895;41.950;24.372;2022-11-20T12:55:11;86357.84;;;12.41;80.74
11678;BME280;5895;41.950;24.372;2022-11-20T12:57:45;86377.53;;;12.32;79.55
11678;BME280;5895;41.950;24.372;2022-11-20T13:00:18;86364.00;;;12.30;79.53
11678;BME280;5895;41.950;24.372;2022-11-20T13:03:20;86376.94;;;12.25;80.66
11678;BME280;5895;41.950;24.372;2022-11-20T13:05:55;86381.84;;;12.21;79.60
11678;BME280;5895;41.950;24.372;2022-11-20T13:08:25;86393.53;;;12.18;78.59
11678;BME280;5895;41.950;24.372;2022-11-20T13:11:00;86391.94;;;12.12;78.36
11678;BME280;5895;41.950;24.372;2022-11-20T13:13:35;86389.31;;;12.12;79.49
11678;BME280;5895;41.950;24.372;2022-11-20T13:16:11;86390.28;;;12.06;78.85
11678;BME280;5895;41.950;24.372;2022-11-20T13:18:42;86399.06;;;12.00;79.13
11678;BME280;5895;41.950;24.372;2022-11-20T13:21:19;86385.00;;;11.96;80.18
11678;BME280;5895;41.950;24.372;2022-11-20T13:23:47;86401.84;;;11.94;79.50
11678;BME280;5895;41.950;24.372;2022-11-20T13:26:18;86400.53;;;11.91;79.33
11678;BME280;5895;41.950;24.372;2022-11-20T13:28:47;86404.66;;;11.87;78.74
11678;BME280;5895;41.950;24.372;2022-11-20T13:31:35;86410.09;;;11.85;82.51